Time;durP1;ratioP1;P1;durP2;ratioP2;P2;SDS_P1;SDS_P2;PMS_P1;PMS_P2;Temp;Humidity;BMP_temperature;BMP_pressure;BME280_temperature;BME280_humidity;BME280_pressure;Samples;Min_cycle;Max_cycle;Signal;HPM_P1;HPM_P2
2021/12/05 00:20:04;;;;;;;40.83;18.83;;;;;;;;;;6152727;23;20017;-78
2021/12/05 00:22:36;;;;;;;38.58;18.85;;;;;;;;;;6153292;23;20020;-77
2021/12/05 00:25:05;;;;;;;38.13;17.52;;;;;;;;;;6128807;23;20013;-78
2021/12/05 00:27:45;;;;;;;37.80;18.77;;;;;;;;;;6128818;23;20020;-78
2021/12/05 00:33:47;;;;;;;33.55;17.55;;;;;;;;;;6153181;23;20013;-77
2021/12/05 01:10:33;;;;;;;28.05;15.68;;;;;;;;;;6152033;23;20129;-77
2021/12/05 01:15:28;;;;;;;27.67;15.25;;;;;;;;;;6154934;23;20419;-78
2021/12/05 01:18:05;;;;;;;22.55;13.48;;;;;;;;;;6154962;23;20025;-78
2021/12/05 01:20:34;;;;;;;27.13;14.38;;;;;;;;;;6180762;23;20013;-77
2021/12/05 01:23:09;;;;;;;25.17;14.40;;;;;;;;;;6154833;23;20021;-77
2021/12/05 01:25:53;;;;;;;27.17;14.45;;;;;;;;;;6130335;23;20048;-77
2021/12/05 01:31:06;;;;;;;25.48;13.68;;;;;;;;;;6154153;23;20056;-78
2021/12/05 01:33:56;;;;;;;25.65;14.88;;;;;;;;;;6154885;23;20017;-78
2021/12/05 01:46:52;;;;;;;24.42;13.93;;;;;;;;;;6154885;23;20017;-77
2021/12/05 01:52:21;;;;;;;25.33;15.20;;;;;;;;;;6181046;23;20013;-77
2021/12/05 02:30:07;;;;;;;29.13;15.80;;;;;;;;;;6153627;23;20017;-77
2021/12/05 02:35:35;;;;;;;24.15;15.05;;;;;;;;;;6180643;23;20025;-77
2021/12/05 02:43:16;;;;;;;29.42;16.52;;;;;;;;;;6180778;23;20067;-77
2021/12/05 02:45:46;;;;;;;32.15;15.95;;;;;;;;;;6130006;23;20062;-77
2021/12/05 02:48:13;;;;;;;30.33;17.33;;;;;;;;;;6129867;23;20009;-77
2021/12/05 02:50:39;;;;;;;24.83;15.73;;;;;;;;;;6180042;23;20013;-77
2021/12/05 02:53:19;;;;;;;28.67;16.27;;;;;;;;;;6154094;23;20109;-77
2021/12/05 02:55:46;;;;;;;27.15;16.65;;;;;;;;;;6180585;23;20100;-77
2021/12/05 02:59:06;;;;;;;24.50;15.30;;;;;;;;;;6180446;23;20024;-78
2021/12/05 03:03:30;;;;;;;24.35;15.13;;;;;;;;;;6180095;23;20104;-77
2021/12/05 03:06:05;;;;;;;28.90;16.00;;;;;;;;;;6154182;23;20017;-77
2021/12/05 03:08:31;;;;;;;27.35;15.85;;;;;;;;;;6180763;23;20383;-77
2021/12/05 03:10:58;;;;;;;27.25;15.82;;;;;;;;;;6179846;23;20334;-77
2021/12/05 03:13:24;;;;;;;31.20;16.98;;;;;;;;;;6153922;23;20067;-77
2021/12/05 03:15:51;;;;;;;28.15;15.63;;;;;;;;;;6153654;23;20068;-77
2021/12/05 03:18:17;;;;;;;28.42;16.35;;;;;;;;;;6128959;23;20056;-77
2021/12/05 03:20:43;;;;;;;26.67;16.30;;;;;;;;;;6153176;23;20013;-78
2021/12/05 03:23:09;;;;;;;33.15;17.23;;;;;;;;;;6180368;23;20423;-77
2021/12/05 03:25:35;;;;;;;35.88;18.38;;;;;;;;;;6129236;23;20017;-77
2021/12/05 03:28:02;;;;;;;32.33;17.38;;;;;;;;;;6153951;23;20108;-77
2021/12/05 03:30:28;;;;;;;34.50;18.25;;;;;;;;;;6179866;23;20533;-77
2021/12/05 03:32:55;;;;;;;39.05;19.70;;;;;;;;;;6153693;23;20470;-77
2021/12/05 03:35:24;;;;;;;33.38;19.20;;;;;;;;;;6153594;23;20028;-77
2021/12/05 03:37:51;;;;;;;40.30;20.13;;;;;;;;;;6153537;23;20017;-77
2021/12/05 03:40:18;;;;;;;38.50;20.02;;;;;;;;;;6128434;23;20013;-77
2021/12/05 03:42:45;;;;;;;34.70;20.80;;;;;;;;;;6153712;23;20027;-77
2021/12/05 03:45:12;;;;;;;40.72;21.50;;;;;;;;;;6180263;23;20013;-77
2021/12/05 03:47:38;;;;;;;40.00;23.15;;;;;;;;;;6153757;23;20023;-77
2021/12/05 03:50:09;;;;;;;37.88;23.30;;;;;;;;;;6179341;23;20017;-77
2021/12/05 03:52:35;;;;;;;36.00;23.40;;;;;;;;;;6153444;23;20013;-77
2021/12/05 03:55:01;;;;;;;41.20;23.67;;;;;;;;;;6129232;23;20020;-77
2021/12/05 03:57:27;;;;;;;43.45;24.67;;;;;;;;;;6153474;23;20548;-77
2021/12/05 03:59:53;;;;;;;37.10;23.60;;;;;;;;;;6153124;23;20056;-77
2021/12/05 04:02:19;;;;;;;44.63;26.00;;;;;;;;;;6179442;23;20758;-77
2021/12/05 04:04:45;;;;;;;44.33;26.48;;;;;;;;;;6128935;23;20021;-77
2021/12/05 04:07:13;;;;;;;44.53;27.08;;;;;;;;;;6153652;23;20028;-77
2021/12/05 04:09:39;;;;;;;48.78;27.77;;;;;;;;;;6179397;23;20451;-77
2021/12/05 04:12:06;;;;;;;55.95;28.88;;;;;;;;;;6179830;23;20013;-77
2021/12/05 04:14:44;;;;;;;45.30;27.50;;;;;;;;;;6179913;23;20413;-77
2021/12/05 04:17:12;;;;;;;48.53;28.58;;;;;;;;;;6154184;23;20245;-77
2021/12/05 04:19:39;;;;;;;44.63;27.90;;;;;;;;;;6152909;23;20021;-77
2021/12/05 04:22:06;;;;;;;50.80;30.08;;;;;;;;;;6179452;23;20017;-77
2021/12/05 04:24:33;;;;;;;47.45;28.42;;;;;;;;;;6153417;23;20320;-77
2021/12/05 04:26:59;;;;;;;48.28;27.92;;;;;;;;;;6155097;23;20013;-77
2021/12/05 04:29:26;;;;;;;48.40;27.80;;;;;;;;;;6129902;23;20092;-77
2021/12/05 04:31:52;;;;;;;42.72;27.15;;;;;;;;;;6127778;23;20442;-77
2021/12/05 04:34:18;;;;;;;46.95;26.83;;;;;;;;;;6179818;23;20328;-77
2021/12/05 04:36:45;;;;;;;45.92;26.73;;;;;;;;;;6181494;23;20020;-77
2021/12/05 04:39:12;;;;;;;46.78;28.17;;;;;;;;;;6179973;23;20071;-77
2021/12/05 04:41:40;;;;;;;45.25;28.10;;;;;;;;;;6152475;23;20021;-77
2021/12/05 04:44:07;;;;;;;45.53;25.63;;;;;;;;;;6179312;23;20083;-77
2021/12/05 04:46:33;;;;;;;42.08;26.05;;;;;;;;;;6179476;23;20017;-78
2021/12/05 04:48:59;;;;;;;48.80;27.08;;;;;;;;;;6152686;23;20012;-78
2021/12/05 04:51:27;;;;;;;41.95;25.77;;;;;;;;;;6178897;23;20021;-77
2021/12/05 04:53:53;;;;;;;45.25;25.60;;;;;;;;;;6153125;23;20056;-77
2021/12/05 04:56:20;;;;;;;40.65;24.00;;;;;;;;;;6153390;23;20486;-77
2021/12/05 04:58:46;;;;;;;38.72;23.67;;;;;;;;;;6153236;23;20072;-77
2021/12/05 05:01:12;;;;;;;34.72;20.65;;;;;;;;;;6151968;23;20017;-77
2021/12/05 05:03:39;;;;;;;35.88;22.42;;;;;;;;;;6179186;23;20017;-77
2021/12/05 05:06:10;;;;;;;36.10;21.92;;;;;;;;;;6127818;23;20021;-77
2021/12/05 05:08:36;;;;;;;38.28;21.75;;;;;;;;;;6179658;23;20013;-77
2021/12/05 05:11:05;;;;;;;33.97;20.63;;;;;;;;;;6179080;23;20009;-77
2021/12/05 05:13:32;;;;;;;39.35;20.88;;;;;;;;;;6128507;23;20416;-77
2021/12/05 05:15:59;;;;;;;34.67;19.85;;;;;;;;;;6179385;23;20024;-77
2021/12/05 05:18:32;;;;;;;39.83;20.05;;;;;;;;;;6128351;23;20017;-77
2021/12/05 05:23:33;;;;;;;38.22;20.48;;;;;;;;;;6179397;23;20072;-77
2021/12/05 05:29:10;;;;;;;38.28;17.95;;;;;;;;;;6152871;23;20017;-77
2021/12/05 05:43:11;;;;;;;30.58;16.60;;;;;;;;;;6178813;23;20018;-77
2021/12/05 05:45:56;;;;;;;31.83;16.05;;;;;;;;;;6178640;23;20060;-78
2021/12/05 05:48:33;;;;;;;36.50;16.10;;;;;;;;;;6179259;23;20092;-77
2021/12/05 05:51:00;;;;;;;30.75;15.23;;;;;;;;;;6178385;23;20017;-77
2021/12/05 05:53:27;;;;;;;36.17;17.00;;;;;;;;;;6152433;23;20096;-77
2021/12/05 05:55:55;;;;;;;27.42;14.50;;;;;;;;;;6127547;23;20024;-78
2021/12/05 05:58:26;;;;;;;25.00;14.57;;;;;;;;;;6153133;23;20447;-78
2021/12/05 06:01:03;;;;;;;27.92;14.35;;;;;;;;;;6153306;23;20044;-77
2021/12/05 06:03:30;;;;;;;27.67;13.88;;;;;;;;;;6155849;23;20072;-78
2021/12/05 06:05:57;;;;;;;28.70;14.55;;;;;;;;;;6183296;23;20017;-78
2021/12/05 06:08:25;;;;;;;29.08;14.88;;;;;;;;;;6130279;23;20274;-77
2021/12/05 06:10:56;;;;;;;26.90;13.82;;;;;;;;;;6154026;23;20036;-77
2021/12/05 06:13:23;;;;;;;29.35;14.20;;;;;;;;;;6180858;23;20024;-78
2021/12/05 06:15:49;;;;;;;26.48;13.57;;;;;;;;;;6181440;23;20017;-78
2021/12/05 06:18:15;;;;;;;25.13;13.82;;;;;;;;;;6181357;23;20096;-78
2021/12/05 06:20:41;;;;;;;27.70;14.48;;;;;;;;;;6180433;23;20398;-77
2021/12/05 06:23:08;;;;;;;25.35;14.15;;;;;;;;;;6181178;23;20017;-78
2021/12/05 06:25:36;;;;;;;29.38;15.43;;;;;;;;;;6154251;23;20055;-78
2021/12/05 06:28:05;;;;;;;27.65;13.55;;;;;;;;;;6154825;23;20545;-78
2021/12/05 06:38:36;;;;;;;24.70;13.48;;;;;;;;;;6154426;23;20451;-77
2021/12/05 06:46:12;;;;;;;30.50;15.18;;;;;;;;;;6180616;23;20023;-78
2021/12/05 06:48:38;;;;;;;28.70;15.20;;;;;;;;;;6154634;23;20013;-78
2021/12/05 06:51:05;;;;;;;29.42;16.02;;;;;;;;;;6179870;23;20021;-78
2021/12/05 06:53:31;;;;;;;28.77;14.70;;;;;;;;;;6153907;23;20013;-78
2021/12/05 06:55:57;;;;;;;26.38;14.05;;;;;;;;;;6180458;23;20013;-78
2021/12/05 06:58:23;;;;;;;25.08;13.98;;;;;;;;;;6129392;23;20399;-78
2021/12/05 07:00:49;;;;;;;27.70;15.43;;;;;;;;;;6153945;23;20099;-78
2021/12/05 07:03:15;;;;;;;29.02;15.20;;;;;;;;;;6181139;23;20498;-78
2021/12/05 07:06:01;;;;;;;27.67;14.27;;;;;;;;;;6180519;23;20029;-78
2021/12/05 07:08:32;;;;;;;31.00;14.77;;;;;;;;;;6180457;23;20068;-78
2021/12/05 07:11:23;;;;;;;26.48;14.90;;;;;;;;;;6152901;23;20013;-78
2021/12/05 07:19:25;;;;;;;27.02;15.30;;;;;;;;;;6180630;23;20477;-78
2021/12/05 07:21:57;;;;;;;27.35;13.68;;;;;;;;;;6153560;23;20016;-78
2021/12/05 07:24:40;;;;;;;27.20;14.38;;;;;;;;;;6153906;23;20025;-78
2021/12/05 07:40:52;;;;;;;29.08;14.75;;;;;;;;;;6152623;23;20393;-80
2021/12/05 07:43:18;;;;;;;32.90;15.10;;;;;;;;;;6153358;23;20355;-80
2021/12/05 07:45:54;;;;;;;27.98;14.55;;;;;;;;;;6153147;23;20062;-79
2021/12/05 07:48:25;;;;;;;30.55;16.00;;;;;;;;;;6129156;23;20371;-79
2021/12/05 07:51:02;;;;;;;27.33;15.10;;;;;;;;;;6179446;23;20017;-78
2021/12/05 07:53:39;;;;;;;35.97;15.10;;;;;;;;;;6179616;23;20012;-79
2021/12/05 07:56:15;;;;;;;29.10;15.40;;;;;;;;;;6153286;23;20017;-78
2021/12/05 08:15:13;;;;;;;29.70;16.10;;;;;;;;;;6178921;23;20615;-78
2021/12/05 08:17:39;;;;;;;38.90;16.43;;;;;;;;;;6179445;23;20509;-78
2021/12/05 08:20:06;;;;;;;34.88;17.38;;;;;;;;;;6179247;23;20013;-79
2021/12/05 08:22:32;;;;;;;34.40;17.60;;;;;;;;;;6128388;23;20349;-79
2021/12/05 08:25:08;;;;;;;34.72;17.58;;;;;;;;;;6152767;23;20435;-79
2021/12/05 08:27:34;;;;;;;30.70;15.88;;;;;;;;;;6152930;23;20017;-79
2021/12/05 08:30:07;;;;;;;35.13;17.08;;;;;;;;;;6178880;23;20043;-79
2021/12/05 08:33:37;;;;;;;33.15;17.25;;;;;;;;;;6127576;23;20378;-78
2021/12/05 08:46:13;;;;;;;33.90;16.10;;;;;;;;;;6152899;23;20203;-80
2021/12/05 09:27:24;;;;;;;37.50;17.63;;;;;;;;;;6178226;23;20092;-79
2021/12/05 09:30:10;;;;;;;34.55;16.80;;;;;;;;;;6178738;23;20017;-80
2021/12/05 09:50:59;;;;;;;;;;;;;;;;;;6181444;23;20021;-78
2021/12/05 10:37:30;;;;;;;28.38;14.68;;;;;;;;;;6179710;23;20043;-79
2021/12/05 10:40:15;;;;;;;29.75;14.27;;;;;;;;;;6153562;23;20056;-79
2021/12/05 10:42:48;;;;;;;29.40;15.13;;;;;;;;;;6153865;23;20041;-79
2021/12/05 10:45:23;;;;;;;32.33;15.47;;;;;;;;;;6179322;23;20031;-79
2021/12/05 10:47:52;;;;;;;30.42;17.08;;;;;;;;;;6177103;23;20005;-79
2021/12/05 10:50:29;;;;;;;31.98;20.13;;;;;;;;;;6177225;23;20079;-79
2021/12/05 10:53:13;;;;;;;32.53;16.67;;;;;;;;;;6151349;23;20480;-79
2021/12/05 10:55:39;;;;;;;27.23;15.02;;;;;;;;;;6150504;23;20111;-80
2021/12/05 10:58:06;;;;;;;25.05;14.30;;;;;;;;;;6179199;23;20407;-79
2021/12/05 11:00:32;;;;;;;32.30;15.75;;;;;;;;;;6127586;23;20339;-80
2021/12/05 11:03:18;;;;;;;32.05;16.45;;;;;;;;;;6151705;23;20281;-80
2021/12/05 11:05:45;;;;;;;25.95;15.10;;;;;;;;;;6149943;23;20017;-79
2021/12/05 11:08:31;;;;;;;27.27;16.02;;;;;;;;;;6152428;23;20017;-79
2021/12/05 11:11:13;;;;;;;27.00;14.25;;;;;;;;;;6178686;23;20077;-80
2021/12/05 11:13:40;;;;;;;25.08;14.55;;;;;;;;;;6128069;23;20036;-78
2021/12/05 11:16:25;;;;;;;21.65;13.35;;;;;;;;;;6125652;23;20013;-79
2021/12/05 11:18:51;;;;;;;30.67;13.20;;;;;;;;;;6150825;23;20462;-79
2021/12/05 11:21:32;;;;;;;23.95;13.18;;;;;;;;;;6152060;23;20024;-79
2021/12/05 11:24:04;;;;;;;23.67;12.85;;;;;;;;;;6151838;23;20083;-80
2021/12/05 11:26:30;;;;;;;24.27;14.20;;;;;;;;;;6155499;23;20442;-80
2021/12/05 11:28:57;;;;;;;23.25;13.57;;;;;;;;;;6156520;23;20017;-81
2021/12/05 11:31:24;;;;;;;26.42;12.85;;;;;;;;;;6155931;23;20016;-80
2021/12/05 11:33:54;;;;;;;23.23;12.75;;;;;;;;;;6156787;23;20013;-80
2021/12/05 11:36:28;;;;;;;22.50;12.50;;;;;;;;;;6154818;23;20012;-81
2021/12/05 11:38:54;;;;;;;25.52;12.73;;;;;;;;;;6128457;23;20421;-81
2021/12/05 11:41:22;;;;;;;22.65;12.60;;;;;;;;;;6180101;23;20009;-81
2021/12/05 11:43:53;;;;;;;32.42;21.10;;;;;;;;;;6153245;23;20013;-80
2021/12/05 11:46:27;;;;;;;26.10;12.93;;;;;;;;;;6176957;23;20016;-80
2021/12/05 11:48:57;;;;;;;26.00;17.85;;;;;;;;;;6152391;23;20044;-82
2021/12/05 11:51:24;;;;;;;28.20;14.07;;;;;;;;;;6150549;23;20525;-80
2021/12/05 11:53:59;;;;;;;22.80;12.85;;;;;;;;;;6153700;23;20020;-80
2021/12/05 11:56:25;;;;;;;;;;;;;;;;;;6154174;23;20423;-80
2021/12/05 11:59:10;;;;;;;25.42;12.95;;;;;;;;;;6128809;23;19919;-80
2021/12/05 12:01:36;;;;;;;;;;;;;;;;;;6153819;23;20062;-80
2021/12/05 12:04:02;;;;;;;24.25;13.88;;;;;;;;;;6153440;23;19916;-80
2021/12/05 12:06:28;;;;;;;27.20;13.98;;;;;;;;;;6179834;23;20079;-79
2021/12/05 12:08:55;;;;;;;25.17;13.18;;;;;;;;;;6179804;23;20032;-80
2021/12/05 12:11:22;;;;;;;26.15;13.90;;;;;;;;;;6128038;23;20079;-80
2021/12/05 12:13:49;;;;;;;27.25;14.48;;;;;;;;;;6153363;23;20017;-79
2021/12/05 12:16:16;;;;;;;22.35;13.38;;;;;;;;;;6179800;23;20083;-80
2021/12/05 12:18:45;;;;;;;24.70;12.30;;;;;;;;;;6179748;23;20190;-80
2021/12/05 12:21:21;;;;;;;26.15;13.77;;;;;;;;;;6179144;23;20478;-80
2021/12/05 12:23:50;;;;;;;27.17;13.52;;;;;;;;;;6179864;23;20017;-81
2021/12/05 12:26:16;;;;;;;22.73;13.88;;;;;;;;;;6128849;23;20697;-80
2021/12/05 12:28:42;;;;;;;26.08;13.73;;;;;;;;;;6128716;23;20092;-80
2021/12/05 12:31:25;;;;;;;24.85;13.70;;;;;;;;;;6152431;23;20020;-79
2021/12/05 12:33:53;;;;;;;28.33;15.35;;;;;;;;;;6152442;23;20013;-79
2021/12/05 12:36:40;;;;;;;26.83;15.15;;;;;;;;;;6152280;23;20071;-80
2021/12/05 12:39:24;;;;;;;24.15;13.75;;;;;;;;;;6152201;23;20008;-80
2021/12/05 12:42:02;;;;;;;24.00;12.90;;;;;;;;;;6151698;23;20017;-79
2021/12/05 12:44:28;;;;;;;25.55;14.70;;;;;;;;;;6152776;23;20261;-79
2021/12/05 12:47:00;;;;;;;26.02;14.70;;;;;;;;;;6152451;23;20017;-79
2021/12/05 12:49:31;;;;;;;23.70;13.93;;;;;;;;;;6152520;23;20022;-80
2021/12/05 12:52:02;;;;;;;26.15;13.25;;;;;;;;;;6178752;23;20020;-79
2021/12/05 12:54:34;;;;;;;22.13;13.00;;;;;;;;;;6152600;23;20046;-81
2021/12/05 12:57:06;;;;;;;45.25;28.15;;;;;;;;;;6152716;23;20023;-80
2021/12/05 12:59:35;;;;;;;28.70;14.85;;;;;;;;;;6152016;23;20023;-80
2021/12/05 13:02:29;;;;;;;27.38;14.30;;;;;;;;;;6152501;23;20017;-81
2021/12/05 13:10:19;;;;;;;36.63;24.67;;;;;;;;;;6154462;23;20013;-81
2021/12/05 13:12:55;;;;;;;26.98;15.52;;;;;;;;;;6131110;23;20103;-81
2021/12/05 13:15:21;;;;;;;21.02;11.75;;;;;;;;;;6152641;23;20017;-81
2021/12/05 13:17:58;;;;;;;31.83;20.77;;;;;;;;;;6153032;23;20017;-81
2021/12/05 13:20:28;;;;;;;23.40;13.52;;;;;;;;;;6178959;23;20075;-81
2021/12/05 13:22:59;;;;;;;21.63;13.27;;;;;;;;;;6153061;23;20359;-81
2021/12/05 13:25:26;;;;;;;20.05;11.82;;;;;;;;;;6179756;23;20447;-81
2021/12/05 13:27:52;;;;;;;18.38;10.80;;;;;;;;;;6153006;23;20342;-78
2021/12/05 13:30:29;;;;;;;18.95;10.93;;;;;;;;;;6178836;23;20028;-80
2021/12/05 13:33:13;;;;;;;19.40;11.50;;;;;;;;;;6152830;23;20454;-79
2021/12/05 13:35:40;;;;;;;19.50;10.73;;;;;;;;;;6128062;23;20075;-79
2021/12/05 13:38:06;;;;;;;20.58;11.85;;;;;;;;;;6179606;23;20099;-79
2021/12/05 13:40:33;;;;;;;22.02;11.40;;;;;;;;;;6152134;23;20121;-79
2021/12/05 13:43:08;;;;;;;17.20;11.13;;;;;;;;;;6152870;23;20020;-79
2021/12/05 13:45:39;;;;;;;;;;;;;;;;;;6152578;23;20028;-80
2021/12/05 13:48:09;;;;;;;17.38;11.15;;;;;;;;;;6151435;23;19920;-80
2021/12/05 13:50:42;;;;;;;22.63;12.25;;;;;;;;;;6177857;23;20111;-79
2021/12/05 13:53:08;;;;;;;19.73;11.18;;;;;;;;;;6179547;23;20020;-79
2021/12/05 13:55:46;;;;;;;19.27;11.38;;;;;;;;;;6152569;23;20021;-78
2021/12/05 13:58:30;;;;;;;18.15;11.98;;;;;;;;;;6152740;23;20097;-79
2021/12/05 14:01:06;;;;;;;26.75;12.57;;;;;;;;;;6178477;23;20017;-79
2021/12/05 14:03:39;;;;;;;22.80;12.35;;;;;;;;;;6179025;23;20018;-79
2021/12/05 14:06:29;;;;;;;19.63;11.43;;;;;;;;;;6152744;23;20387;-78
2021/12/05 14:08:58;;;;;;;20.08;12.48;;;;;;;;;;6125192;23;20021;-78
2021/12/05 14:11:25;;;;;;;22.20;13.55;;;;;;;;;;6151815;23;20470;-79
2021/12/05 14:13:51;;;;;;;22.92;13.05;;;;;;;;;;6152445;23;20017;-79
2021/12/05 14:16:18;;;;;;;21.42;12.20;;;;;;;;;;6178997;23;20071;-79
2021/12/05 14:18:44;;;;;;;21.08;11.85;;;;;;;;;;6152614;23;20021;-78
2021/12/05 14:21:14;;;;;;;20.63;11.80;;;;;;;;;;6152941;23;20092;-80
2021/12/05 14:23:46;;;;;;;19.50;12.07;;;;;;;;;;6154355;23;20009;-79
2021/12/05 14:26:13;;;;;;;21.77;13.10;;;;;;;;;;6129678;23;20473;-79
2021/12/05 14:28:39;;;;;;;19.80;12.23;;;;;;;;;;6130065;23;20120;-80
2021/12/05 14:31:05;;;;;;;25.02;16.10;;;;;;;;;;6180334;23;20028;-80
2021/12/05 14:33:45;;;;;;;26.13;14.38;;;;;;;;;;6129191;23;20017;-79
2021/12/05 14:36:32;;;;;;;24.25;14.38;;;;;;;;;;6154605;23;20028;-79
2021/12/05 14:39:17;;;;;;;20.67;12.68;;;;;;;;;;6153987;23;20017;-79
2021/12/05 14:41:46;;;;;;;21.65;12.40;;;;;;;;;;6152778;23;20533;-78
2021/12/05 14:44:13;;;;;;;24.23;13.80;;;;;;;;;;6153911;23;20060;-79
2021/12/05 14:46:47;;;;;;;23.25;14.48;;;;;;;;;;6153657;23;20447;-79
2021/12/05 14:49:13;;;;;;;19.95;13.63;;;;;;;;;;6128858;23;20024;-79
2021/12/05 14:51:40;;;;;;;21.08;13.00;;;;;;;;;;6152524;23;20028;-79
2021/12/05 14:54:07;;;;;;;39.03;21.77;;;;;;;;;;6178812;23;20351;-79
2021/12/05 14:56:35;;;;;;;32.85;23.85;;;;;;;;;;6179332;23;20048;-79
2021/12/05 14:59:11;;;;;;;23.77;14.05;;;;;;;;;;6153943;23;20013;-80
2021/12/05 15:01:39;;;;;;;22.13;12.73;;;;;;;;;;6179086;23;20013;-80
2021/12/05 15:04:06;;;;;;;21.00;12.93;;;;;;;;;;6153233;23;20100;-80
2021/12/05 15:06:39;;;;;;;24.10;14.13;;;;;;;;;;6153273;23;20016;-80
2021/12/05 15:09:07;;;;;;;24.25;14.05;;;;;;;;;;6180834;23;20080;-80
2021/12/05 15:11:34;;;;;;;27.42;14.63;;;;;;;;;;6182790;23;20096;-80
2021/12/05 15:14:07;;;;;;;27.40;14.77;;;;;;;;;;6156906;23;20465;-79
2021/12/05 15:16:33;;;;;;;23.63;14.30;;;;;;;;;;6130365;23;20017;-79
2021/12/05 15:18:59;;;;;;;20.75;12.52;;;;;;;;;;6153822;23;20438;-79
2021/12/05 15:21:27;;;;;;;22.83;14.45;;;;;;;;;;6152654;23;20028;-79
2021/12/05 15:23:54;;;;;;;22.45;12.88;;;;;;;;;;6179032;23;20071;-79
2021/12/05 15:26:21;;;;;;;26.00;15.38;;;;;;;;;;6178379;23;20048;-79
2021/12/05 15:28:47;;;;;;;22.95;14.68;;;;;;;;;;6151359;23;20017;-79
2021/12/05 15:31:14;;;;;;;21.92;13.80;;;;;;;;;;6178482;23;20091;-79
2021/12/05 15:33:40;;;;;;;23.30;13.63;;;;;;;;;;6152690;23;20013;-79
2021/12/05 15:36:07;;;;;;;23.95;14.35;;;;;;;;;;6127846;23;20017;-79
2021/12/05 15:38:35;;;;;;;22.63;16.38;;;;;;;;;;6152889;23;20021;-80
2021/12/05 15:41:10;;;;;;;22.95;13.75;;;;;;;;;;6127729;23;20049;-81
2021/12/05 15:43:37;;;;;;;20.48;12.82;;;;;;;;;;6152626;23;20036;-81
2021/12/05 15:46:11;;;;;;;25.20;14.93;;;;;;;;;;6128312;23;20178;-79
2021/12/05 15:48:37;;;;;;;20.63;13.57;;;;;;;;;;6179783;23;20193;-79
2021/12/05 15:51:05;;;;;;;24.27;15.45;;;;;;;;;;6152293;23;20013;-79
2021/12/05 15:53:33;;;;;;;23.75;14.43;;;;;;;;;;6153401;23;20016;-79
2021/12/05 15:56:00;;;;;;;28.20;15.82;;;;;;;;;;6153181;23;20097;-79
2021/12/05 15:58:40;;;;;;;26.20;16.25;;;;;;;;;;6153370;23;20534;-79
2021/12/05 16:01:14;;;;;;;26.90;16.45;;;;;;;;;;6179224;23;20245;-79
2021/12/05 16:03:46;;;;;;;30.02;16.73;;;;;;;;;;6179626;23;20017;-79
2021/12/05 16:06:14;;;;;;;22.33;15.23;;;;;;;;;;6152136;23;20032;-79
2021/12/05 16:08:41;;;;;;;29.40;17.35;;;;;;;;;;6152402;23;20020;-79
2021/12/05 16:11:12;;;;;;;28.42;16.95;;;;;;;;;;6151961;23;20328;-79
2021/12/05 16:13:41;;;;;;;30.50;17.00;;;;;;;;;;6179061;23;20009;-79
2021/12/05 16:16:15;;;;;;;28.02;17.02;;;;;;;;;;6151420;23;20327;-79
2021/12/05 16:18:43;;;;;;;33.78;19.73;;;;;;;;;;6177216;23;20017;-79
2021/12/05 16:21:15;;;;;;;43.95;27.00;;;;;;;;;;6126780;23;20016;-79
2021/12/05 16:23:41;;;;;;;31.20;18.55;;;;;;;;;;6177902;23;20044;-79
2021/12/05 16:26:09;;;;;;;27.75;17.20;;;;;;;;;;6177730;23;20013;-80
2021/12/05 16:28:44;;;;;;;33.45;18.50;;;;;;;;;;6151243;23;20429;-80
2021/12/05 16:31:09;;;;;;;34.38;19.10;;;;;;;;;;6151100;23;20013;-80
2021/12/05 16:33:36;;;;;;;32.53;19.08;;;;;;;;;;6150901;23;20013;-79
2021/12/05 16:36:02;;;;;;;36.22;20.90;;;;;;;;;;6178252;23;20020;-80
2021/12/05 16:38:34;;;;;;;36.92;22.08;;;;;;;;;;6150568;23;20024;-80
2021/12/05 16:41:03;;;;;;;35.55;22.83;;;;;;;;;;6125340;23;20023;-80
2021/12/05 16:43:30;;;;;;;35.53;21.20;;;;;;;;;;6151547;23;20016;-80
2021/12/05 16:46:08;;;;;;;36.70;20.27;;;;;;;;;;6127010;23;20016;-79
2021/12/05 16:48:34;;;;;;;47.92;23.08;;;;;;;;;;6151384;23;20332;-80
2021/12/05 16:51:18;;;;;;;35.22;21.15;;;;;;;;;;6150154;23;20045;-80
2021/12/05 16:53:46;;;;;;;44.15;25.27;;;;;;;;;;6151515;23;20013;-80
2021/12/05 16:56:14;;;;;;;40.70;23.85;;;;;;;;;;6151983;23;20017;-80
2021/12/05 16:58:44;;;;;;;45.75;23.98;;;;;;;;;;6151675;23;20020;-80
2021/12/05 17:01:20;;;;;;;46.55;34.95;;;;;;;;;;6126636;23;20075;-80
2021/12/05 17:03:47;;;;;;;52.25;27.27;;;;;;;;;;6150884;23;20013;-80
2021/12/05 17:06:15;;;;;;;46.53;24.90;;;;;;;;;;6150683;23;20025;-80
2021/12/05 17:08:45;;;;;;;50.45;28.27;;;;;;;;;;6127125;23;20023;-80
2021/12/05 17:11:12;;;;;;;53.55;30.05;;;;;;;;;;6150916;23;20060;-79
2021/12/05 17:13:38;;;;;;;45.88;26.35;;;;;;;;;;6178164;23;20025;-80
2021/12/05 17:16:04;;;;;;;50.63;28.15;;;;;;;;;;6126868;23;20556;-80
2021/12/05 17:18:30;;;;;;;48.10;26.67;;;;;;;;;;6151440;23;20017;-80
2021/12/05 17:21:17;;;;;;;43.97;26.23;;;;;;;;;;6151154;23;20017;-80
2021/12/05 17:24:06;;;;;;;97.43;55.92;;;;;;;;;;6149462;23;20368;-80
2021/12/05 17:26:35;;;;;;;89.35;48.42;;;;;;;;;;6107912;23;20025;-80
2021/12/05 17:29:07;;;;;;;52.72;30.92;;;;;;;;;;6126217;23;20382;-79
2021/12/05 17:31:36;;;;;;;66.63;39.65;;;;;;;;;;6150582;23;20024;-79
2021/12/05 17:34:05;;;;;;;66.57;42.83;;;;;;;;;;6126789;23;20024;-80
2021/12/05 17:36:33;;;;;;;42.00;26.70;;;;;;;;;;6150996;23;20021;-81
2021/12/05 17:39:01;;;;;;;48.10;32.58;;;;;;;;;;6126891;23;20036;-80
2021/12/05 17:41:28;;;;;;;63.72;44.80;;;;;;;;;;6150842;23;20027;-80
2021/12/05 17:43:55;;;;;;;43.67;29.23;;;;;;;;;;6126086;23;20025;-80
2021/12/05 17:46:21;;;;;;;45.22;30.67;;;;;;;;;;6150354;23;20066;-80
2021/12/05 17:48:48;;;;;;;53.42;34.00;;;;;;;;;;6125664;23;20016;-80
2021/12/05 17:51:15;;;;;;;52.92;39.95;;;;;;;;;;6149291;23;20017;-80
2021/12/05 17:53:41;;;;;;;44.28;26.00;;;;;;;;;;6177074;23;20115;-80
2021/12/05 17:56:15;;;;;;;46.78;32.83;;;;;;;;;;6151440;23;20048;-81
2021/12/05 18:03:56;;;;;;;48.35;35.03;;;;;;;;;;6152734;23;20447;-80
2021/12/05 18:06:22;;;;;;;56.30;39.92;;;;;;;;;;6179016;23;20371;-81
2021/12/05 18:08:49;;;;;;;67.57;49.83;;;;;;;;;;6152913;23;20013;-80
2021/12/05 18:11:21;;;;;;;60.58;45.75;;;;;;;;;;6152006;23;20100;-79
2021/12/05 18:13:52;;;;;;;44.83;28.15;;;;;;;;;;6178719;23;20132;-81
2021/12/05 18:16:23;;;;;;;54.13;38.83;;;;;;;;;;6152739;23;20017;-81
2021/12/05 18:18:49;;;;;;;40.65;28.20;;;;;;;;;;6128544;23;20013;-81
2021/12/05 18:21:18;;;;;;;44.60;27.20;;;;;;;;;;6151269;23;20339;-80
2021/12/05 18:23:44;;;;;;;39.67;26.15;;;;;;;;;;6179236;23;20346;-80
2021/12/05 18:26:11;;;;;;;36.05;22.63;;;;;;;;;;6152408;23;20013;-80
2021/12/05 18:28:38;;;;;;;43.55;25.27;;;;;;;;;;6128218;23;20454;-81
2021/12/05 18:31:05;;;;;;;37.38;23.65;;;;;;;;;;6127211;23;20056;-81
2021/12/05 18:33:31;;;;;;;40.72;23.98;;;;;;;;;;6127667;23;20367;-80
2021/12/05 18:35:57;;;;;;;39.90;25.13;;;;;;;;;;6152272;23;20013;-80
2021/12/05 18:38:24;;;;;;;38.30;24.20;;;;;;;;;;6179328;23;20020;-81
2021/12/05 18:40:53;;;;;;;39.00;24.67;;;;;;;;;;6152204;23;20024;-80
2021/12/05 18:43:23;;;;;;;41.50;24.42;;;;;;;;;;6128065;23;20091;-81
2021/12/05 18:45:50;;;;;;;36.25;23.65;;;;;;;;;;6153025;23;20126;-81
2021/12/05 18:48:16;;;;;;;41.33;25.35;;;;;;;;;;6152261;23;20113;-81
2021/12/05 18:50:43;;;;;;;35.88;21.67;;;;;;;;;;6127051;23;20013;-82
2021/12/05 18:53:12;;;;;;;34.88;22.50;;;;;;;;;;6128333;23;20016;-81
2021/12/05 18:55:38;;;;;;;31.67;19.63;;;;;;;;;;6152891;23;20475;-81
2021/12/05 18:58:08;;;;;;;35.63;21.90;;;;;;;;;;6127281;23;20028;-81
2021/12/05 19:04:17;;;;;;;34.92;21.58;;;;;;;;;;6177995;23;20017;-81
2021/12/05 19:06:11;;;;;;;34.65;21.40;;;;;;;;;;6152167;23;20402;-81
2021/12/05 19:09:03;;;;;;;31.83;19.77;;;;;;;;;;6127592;23;20067;-80
2021/12/05 19:14:08;;;;;;;36.03;22.20;;;;;;;;;;6151099;23;20393;-80
2021/12/05 19:16:35;;;;;;;39.53;23.42;;;;;;;;;;6126809;23;20067;-81
2021/12/05 19:19:03;;;;;;;34.55;21.35;;;;;;;;;;6152259;23;20020;-79
2021/12/05 19:21:31;;;;;;;35.63;23.25;;;;;;;;;;6151483;23;20533;-80
2021/12/05 19:23:58;;;;;;;36.45;23.20;;;;;;;;;;6127571;23;20013;-80
2021/12/05 19:26:25;;;;;;;40.03;24.25;;;;;;;;;;6127542;23;20040;-80
2021/12/05 19:28:51;;;;;;;42.40;25.35;;;;;;;;;;6150910;23;20427;-80
2021/12/05 19:31:17;;;;;;;42.33;25.70;;;;;;;;;;6151046;23;20036;-79
2021/12/05 19:33:43;;;;;;;43.92;26.42;;;;;;;;;;6127796;23;20087;-79
2021/12/05 19:36:14;;;;;;;40.75;25.38;;;;;;;;;;6151891;23;20362;-80
2021/12/05 19:38:40;;;;;;;45.00;26.60;;;;;;;;;;6178897;23;20081;-79
2021/12/05 19:41:06;;;;;;;48.03;29.25;;;;;;;;;;6151315;23;20021;-79
2021/12/05 19:43:40;;;;;;;49.05;29.88;;;;;;;;;;6151680;23;20016;-79
2021/12/05 19:46:07;;;;;;;48.83;30.25;;;;;;;;;;6127487;23;20096;-80
2021/12/05 19:48:34;;;;;;;50.08;30.45;;;;;;;;;;6126697;23;20087;-79
2021/12/05 19:51:06;;;;;;;50.60;30.05;;;;;;;;;;6126945;23;20009;-80